sensor_id;sensor_type;location;lat;lon;timestamp;temperature;humidity
54642;DHT22;40536;53.194;5.728;2023-02-14T00:00:20;2.80;99.90
54642;DHT22;40536;53.194;5.728;2023-02-14T00:02:47;2.80;99.90
54642;DHT22;40536;53.194;5.728;2023-02-14T00:05:14;2.80;99.90
54642;DHT22;40536;53.194;5.728;2023-02-14T00:07:39;2.80;99.90
54642;DHT22;40536;53.194;5.728;2023-02-14T00:10:07;2.70;99.90
54642;DHT22;40536;53.194;5.728;2023-02-14T00:12:33;2.80;99.90
54642;DHT22;40536;53.194;5.728;2023-02-14T00:14:58;2.80;99.90
54642;DHT22;40536;53.194;5.728;2023-02-14T00:17:42;2.90;99.90
54642;DHT22;40536;53.194;5.728;2023-02-14T00:20:08;3.80;99.90
54642;DHT22;40536;53.194;5.728;2023-02-14T00:22:34;2.70;99.90
54642;DHT22;40536;53.194;5.728;2023-02-14T00:25:00;2.70;99.90
54642;DHT22;40536;53.194;5.728;2023-02-14T00:27:25;2.70;99.90
54642;DHT22;40536;53.194;5.728;2023-02-14T00:29:51;2.60;99.90
54642;DHT22;40536;53.194;5.728;2023-02-14T00:32:18;2.60;99.90
54642;DHT22;40536;53.194;5.728;2023-02-14T00:34:43;2.60;99.90
54642;DHT22;40536;53.194;5.728;2023-02-14T00:37:09;2.60;99.90
54642;DHT22;40536;53.194;5.728;2023-02-14T00:39:35;3.20;99.90
54642;DHT22;40536;53.194;5.728;2023-02-14T00:42:00;2.60;99.90
54642;DHT22;40536;53.194;5.728;2023-02-14T00:44:26;2.50;99.90
54642;DHT22;40536;53.194;5.728;2023-02-14T00:46:51;3.70;99.90
54642;DHT22;40536;53.194;5.728;2023-02-14T00:49:17;2.50;99.90
54642;DHT22;40536;53.194;5.728;2023-02-14T00:51:43;2.60;99.90
54642;DHT22;40536;53.194;5.728;2023-02-14T00:54:08;2.60;99.90
54642;DHT22;40536;53.194;5.728;2023-02-14T00:56:34;2.60;99.90
54642;DHT22;40536;53.194;5.728;2023-02-14T00:59:00;2.70;99.90
54642;DHT22;40536;53.194;5.728;2023-02-14T01:01:26;2.70;99.90
54642;DHT22;40536;53.194;5.728;2023-02-14T01:03:52;2.70;99.90
54642;DHT22;40536;53.194;5.728;2023-02-14T01:06:17;2.70;99.90
54642;DHT22;40536;53.194;5.728;2023-02-14T01:08:43;2.70;99.90
54642;DHT22;40536;53.194;5.728;2023-02-14T01:11:15;2.70;99.90
54642;DHT22;40536;53.194;5.728;2023-02-14T01:13:42;2.70;99.90
54642;DHT22;40536;53.194;5.728;2023-02-14T01:16:10;2.70;99.90
54642;DHT22;40536;53.194;5.728;2023-02-14T01:18:36;2.70;99.90
54642;DHT22;40536;53.194;5.728;2023-02-14T01:21:23;2.70;99.90
54642;DHT22;40536;53.194;5.728;2023-02-14T01:23:52;2.60;99.90
54642;DHT22;40536;53.194;5.728;2023-02-14T01:26:19;2.60;99.90
54642;DHT22;40536;53.194;5.728;2023-02-14T01:28:45;2.60;99.90
54642;DHT22;40536;53.194;5.728;2023-02-14T01:31:17;2.60;99.90
54642;DHT22;40536;53.194;5.728;2023-02-14T01:33:45;2.50;99.90
54642;DHT22;40536;53.194;5.728;2023-02-14T01:36:22;2.50;99.90
54642;DHT22;40536;53.194;5.728;2023-02-14T01:38:54;2.50;99.90
54642;DHT22;40536;53.194;5.728;2023-02-14T01:41:21;2.50;99.90
54642;DHT22;40536;53.194;5.728;2023-02-14T01:46:39;2.50;99.90
54642;DHT22;40536;53.194;5.728;2023-02-14T01:49:09;2.50;99.90
54642;DHT22;40536;53.194;5.728;2023-02-14T01:51:39;2.50;99.90
54642;DHT22;40536;53.194;5.728;2023-02-14T01:54:07;2.50;99.90
54642;DHT22;40536;53.194;5.728;2023-02-14T01:56:37;2.50;99.90
54642;DHT22;40536;53.194;5.728;2023-02-14T01:59:07;2.50;99.90
54642;DHT22;40536;53.194;5.728;2023-02-14T02:01:33;2.50;99.90
54642;DHT22;40536;53.194;5.728;2023-02-14T02:04:07;2.50;99.90
54642;DHT22;40536;53.194;5.728;2023-02-14T02:06:44;2.40;99.90
54642;DHT22;40536;53.194;5.728;2023-02-14T02:09:17;2.40;99.90
54642;DHT22;40536;53.194;5.728;2023-02-14T02:11:44;2.40;99.90
54642;DHT22;40536;53.194;5.728;2023-02-14T02:14:16;2.40;99.90
54642;DHT22;40536;53.194;5.728;2023-02-14T02:17:10;2.40;99.90
54642;DHT22;40536;53.194;5.728;2023-02-14T02:19:53;2.40;99.90
54642;DHT22;40536;53.194;5.728;2023-02-14T02:30:43;2.40;99.90
54642;DHT22;40536;53.194;5.728;2023-02-14T02:39:05;2.40;99.90
54642;DHT22;40536;53.194;5.728;2023-02-14T02:49:40;2.30;99.90
54642;DHT22;40536;53.194;5.728;2023-02-14T02:58:21;2.10;99.90
54642;DHT22;40536;53.194;5.728;2023-02-14T03:00:51;2.10;99.90
54642;DHT22;40536;53.194;5.728;2023-02-14T03:03:19;2.10;99.90
54642;DHT22;40536;53.194;5.728;2023-02-14T03:06:04;2.10;99.90
54642;DHT22;40536;53.194;5.728;2023-02-14T03:08:30;2.10;99.90
54642;DHT22;40536;53.194;5.728;2023-02-14T03:11:00;2.10;99.90
54642;DHT22;40536;53.194;5.728;2023-02-14T03:16:22;2.10;99.90
54642;DHT22;40536;53.194;5.728;2023-02-14T03:32:26;1.90;99.90
54642;DHT22;40536;53.194;5.728;2023-02-14T03:37:54;1.80;99.90
54642;DHT22;40536;53.194;5.728;2023-02-14T03:40:51;2.70;99.90
54642;DHT22;40536;53.194;5.728;2023-02-14T03:43:30;1.70;99.90
54642;DHT22;40536;53.194;5.728;2023-02-14T03:46:34;2.10;99.90
54642;DHT22;40536;53.194;5.728;2023-02-14T03:48:54;1.70;99.90
54642;DHT22;40536;53.194;5.728;2023-02-14T03:51:21;1.70;99.90
54642;DHT22;40536;53.194;5.728;2023-02-14T03:53:52;1.70;99.90
54642;DHT22;40536;53.194;5.728;2023-02-14T03:58:54;1.60;99.90
54642;DHT22;40536;53.194;5.728;2023-02-14T04:01:32;1.60;99.90
54642;DHT22;40536;53.194;5.728;2023-02-14T04:04:02;1.60;99.90
54642;DHT22;40536;53.194;5.728;2023-02-14T04:06:29;2.60;99.90
54642;DHT22;40536;53.194;5.728;2023-02-14T04:08:55;1.50;99.90
54642;DHT22;40536;53.194;5.728;2023-02-14T04:11:21;1.60;99.90
54642;DHT22;40536;53.194;5.728;2023-02-14T04:13:46;1.60;99.90
54642;DHT22;40536;53.194;5.728;2023-02-14T04:16:12;1.60;99.90
54642;DHT22;40536;53.194;5.728;2023-02-14T04:18:37;1.60;99.90
54642;DHT22;40536;53.194;5.728;2023-02-14T04:21:22;1.60;99.90
54642;DHT22;40536;53.194;5.728;2023-02-14T04:23:48;1.70;99.90
54642;DHT22;40536;53.194;5.728;2023-02-14T04:26:13;1.70;99.90
54642;DHT22;40536;53.194;5.728;2023-02-14T04:28:39;1.70;99.90
54642;DHT22;40536;53.194;5.728;2023-02-14T04:31:05;1.70;99.90
54642;DHT22;40536;53.194;5.728;2023-02-14T04:33:32;1.70;99.90
54642;DHT22;40536;53.194;5.728;2023-02-14T04:35:58;1.70;99.90
54642;DHT22;40536;53.194;5.728;2023-02-14T04:38:24;1.70;99.90
54642;DHT22;40536;53.194;5.728;2023-02-14T04:40:50;1.70;99.90
54642;DHT22;40536;53.194;5.728;2023-02-14T04:43:16;2.70;99.90
54642;DHT22;40536;53.194;5.728;2023-02-14T04:45:42;1.70;99.90
54642;DHT22;40536;53.194;5.728;2023-02-14T04:48:08;1.70;99.90
54642;DHT22;40536;53.194;5.728;2023-02-14T04:50:33;1.60;99.90
54642;DHT22;40536;53.194;5.728;2023-02-14T04:52:59;1.60;99.90
54642;DHT22;40536;53.194;5.728;2023-02-14T04:55:25;1.60;99.90
54642;DHT22;40536;53.194;5.728;2023-02-14T04:57:50;1.60;99.90
54642;DHT22;40536;53.194;5.728;2023-02-14T05:00:16;1.60;99.90
54642;DHT22;40536;53.194;5.728;2023-02-14T05:02:42;1.60;99.90
54642;DHT22;40536;53.194;5.728;2023-02-14T05:05:08;2.60;99.90
54642;DHT22;40536;53.194;5.728;2023-02-14T05:07:34;1.60;99.90
54642;DHT22;40536;53.194;5.728;2023-02-14T05:09:59;1.60;99.90
54642;DHT22;40536;53.194;5.728;2023-02-14T05:12:25;1.50;99.90
54642;DHT22;40536;53.194;5.728;2023-02-14T05:14:50;1.50;99.90
54642;DHT22;40536;53.194;5.728;2023-02-14T05:17:16;2.40;99.90
54642;DHT22;40536;53.194;5.728;2023-02-14T05:19:42;1.50;99.90
54642;DHT22;40536;53.194;5.728;2023-02-14T05:22:07;1.40;99.90
54642;DHT22;40536;53.194;5.728;2023-02-14T05:24:33;1.40;99.90
54642;DHT22;40536;53.194;5.728;2023-02-14T05:26:59;1.40;99.90
54642;DHT22;40536;53.194;5.728;2023-02-14T05:29:24;1.40;99.90
54642;DHT22;40536;53.194;5.728;2023-02-14T05:31:50;1.30;99.90
54642;DHT22;40536;53.194;5.728;2023-02-14T05:34:15;1.30;99.90
54642;DHT22;40536;53.194;5.728;2023-02-14T05:36:41;1.20;99.90
54642;DHT22;40536;53.194;5.728;2023-02-14T05:39:07;1.50;99.90
54642;DHT22;40536;53.194;5.728;2023-02-14T05:41:33;1.30;99.90
54642;DHT22;40536;53.194;5.728;2023-02-14T05:43:58;1.20;99.90
54642;DHT22;40536;53.194;5.728;2023-02-14T05:46:24;1.10;99.90
54642;DHT22;40536;53.194;5.728;2023-02-14T05:48:50;1.00;99.90
54642;DHT22;40536;53.194;5.728;2023-02-14T05:51:15;1.00;99.90
54642;DHT22;40536;53.194;5.728;2023-02-14T05:53:41;0.90;99.90
54642;DHT22;40536;53.194;5.728;2023-02-14T05:56:07;0.90;99.90
54642;DHT22;40536;53.194;5.728;2023-02-14T05:58:32;0.90;99.90
54642;DHT22;40536;53.194;5.728;2023-02-14T06:00:58;1.50;99.90
54642;DHT22;40536;53.194;5.728;2023-02-14T06:03:24;0.90;99.90
54642;DHT22;40536;53.194;5.728;2023-02-14T06:05:51;0.90;99.90
54642;DHT22;40536;53.194;5.728;2023-02-14T06:08:16;0.90;99.90
54642;DHT22;40536;53.194;5.728;2023-02-14T06:10:42;0.90;99.90
54642;DHT22;40536;53.194;5.728;2023-02-14T06:13:08;0.90;99.90
54642;DHT22;40536;53.194;5.728;2023-02-14T06:15:35;0.80;99.90
54642;DHT22;40536;53.194;5.728;2023-02-14T06:18:01;0.80;99.90
54642;DHT22;40536;53.194;5.728;2023-02-14T06:22:54;0.70;99.90
54642;DHT22;40536;53.194;5.728;2023-02-14T06:25:21;0.60;99.90
54642;DHT22;40536;53.194;5.728;2023-02-14T06:27:47;0.60;99.90
54642;DHT22;40536;53.194;5.728;2023-02-14T06:30:14;0.60;99.90
54642;DHT22;40536;53.194;5.728;2023-02-14T06:32:40;0.50;99.90
54642;DHT22;40536;53.194;5.728;2023-02-14T06:35:06;0.40;99.90
54642;DHT22;40536;53.194;5.728;2023-02-14T06:37:32;0.40;99.90
54642;DHT22;40536;53.194;5.728;2023-02-14T06:39:58;0.40;99.90
54642;DHT22;40536;53.194;5.728;2023-02-14T06:42:23;0.30;99.90
54642;DHT22;40536;53.194;5.728;2023-02-14T06:44:49;0.30;99.90
54642;DHT22;40536;53.194;5.728;2023-02-14T06:47:15;0.30;99.90
54642;DHT22;40536;53.194;5.728;2023-02-14T06:49:41;0.30;99.90
54642;DHT22;40536;53.194;5.728;2023-02-14T06:52:07;0.30;99.90
54642;DHT22;40536;53.194;5.728;2023-02-14T06:54:32;0.20;99.90
54642;DHT22;40536;53.194;5.728;2023-02-14T06:56:58;1.10;99.90
54642;DHT22;40536;53.194;5.728;2023-02-14T06:59:24;0.20;99.90
54642;DHT22;40536;53.194;5.728;2023-02-14T07:01:49;0.20;99.90
54642;DHT22;40536;53.194;5.728;2023-02-14T07:04:15;0.20;99.90
54642;DHT22;40536;53.194;5.728;2023-02-14T07:06:43;0.20;99.90
54642;DHT22;40536;53.194;5.728;2023-02-14T07:09:09;0.20;99.90
54642;DHT22;40536;53.194;5.728;2023-02-14T07:11:35;0.20;99.90
54642;DHT22;40536;53.194;5.728;2023-02-14T07:14:00;0.20;99.90
54642;DHT22;40536;53.194;5.728;2023-02-14T07:16:26;0.80;99.90
54642;DHT22;40536;53.194;5.728;2023-02-14T07:18:51;0.30;99.90
54642;DHT22;40536;53.194;5.728;2023-02-14T07:21:17;0.30;99.90
54642;DHT22;40536;53.194;5.728;2023-02-14T07:23:43;0.30;99.90
54642;DHT22;40536;53.194;5.728;2023-02-14T07:26:12;0.30;99.90
54642;DHT22;40536;53.194;5.728;2023-02-14T07:28:43;1.10;99.90
54642;DHT22;40536;53.194;5.728;2023-02-14T07:31:10;0.40;99.90
54642;DHT22;40536;53.194;5.728;2023-02-14T07:33:36;0.40;99.90
54642;DHT22;40536;53.194;5.728;2023-02-14T07:36:06;0.40;99.90
54642;DHT22;40536;53.194;5.728;2023-02-14T07:38:31;0.50;99.90
54642;DHT22;40536;53.194;5.728;2023-02-14T07:40:57;0.50;99.90
54642;DHT22;40536;53.194;5.728;2023-02-14T07:43:23;0.50;99.90
54642;DHT22;40536;53.194;5.728;2023-02-14T07:45:48;0.60;99.90
54642;DHT22;40536;53.194;5.728;2023-02-14T07:48:14;0.60;99.90
54642;DHT22;40536;53.194;5.728;2023-02-14T07:50:39;0.70;99.90
54642;DHT22;40536;53.194;5.728;2023-02-14T07:53:05;0.70;99.90
54642;DHT22;40536;53.194;5.728;2023-02-14T07:55:33;0.80;99.90
54642;DHT22;40536;53.194;5.728;2023-02-14T07:57:59;0.80;99.90
54642;DHT22;40536;53.194;5.728;2023-02-14T08:00:25;0.80;99.90
54642;DHT22;40536;53.194;5.728;2023-02-14T08:02:50;0.80;99.90
54642;DHT22;40536;53.194;5.728;2023-02-14T08:05:16;0.90;99.90
54642;DHT22;40536;53.194;5.728;2023-02-14T08:07:42;1.20;99.90
54642;DHT22;40536;53.194;5.728;2023-02-14T08:10:09;0.90;99.90
54642;DHT22;40536;53.194;5.728;2023-02-14T08:12:34;0.90;99.90
54642;DHT22;40536;53.194;5.728;2023-02-14T08:15:18;0.90;99.90
54642;DHT22;40536;53.194;5.728;2023-02-14T08:18:03;0.90;99.90
54642;DHT22;40536;53.194;5.728;2023-02-14T08:20:28;1.00;99.90
54642;DHT22;40536;53.194;5.728;2023-02-14T08:22:54;1.00;99.90
54642;DHT22;40536;53.194;5.728;2023-02-14T08:25:20;1.10;99.90
54642;DHT22;40536;53.194;5.728;2023-02-14T08:27:46;2.10;99.90
54642;DHT22;40536;53.194;5.728;2023-02-14T08:30:12;1.10;99.90
54642;DHT22;40536;53.194;5.728;2023-02-14T08:32:38;1.10;99.90
54642;DHT22;40536;53.194;5.728;2023-02-14T08:35:04;1.10;99.90
54642;DHT22;40536;53.194;5.728;2023-02-14T08:37:29;1.20;99.90
54642;DHT22;40536;53.194;5.728;2023-02-14T08:39:55;2.00;99.90
54642;DHT22;40536;53.194;5.728;2023-02-14T08:42:20;1.30;99.90
54642;DHT22;40536;53.194;5.728;2023-02-14T08:44:46;1.40;99.90
54642;DHT22;40536;53.194;5.728;2023-02-14T08:47:12;1.50;99.90
54642;DHT22;40536;53.194;5.728;2023-02-14T08:49:37;1.50;99.90
54642;DHT22;40536;53.194;5.728;2023-02-14T08:52:03;2.80;99.90
54642;DHT22;40536;53.194;5.728;2023-02-14T08:54:29;1.80;99.90
54642;DHT22;40536;53.194;5.728;2023-02-14T08:56:54;1.90;99.90
54642;DHT22;40536;53.194;5.728;2023-02-14T08:59:20;2.00;99.90
54642;DHT22;40536;53.194;5.728;2023-02-14T09:01:46;2.10;99.90
54642;DHT22;40536;53.194;5.728;2023-02-14T09:04:11;2.20;99.90
54642;DHT22;40536;53.194;5.728;2023-02-14T09:06:38;2.30;99.90
54642;DHT22;40536;53.194;5.728;2023-02-14T09:09:04;2.40;99.90
54642;DHT22;40536;53.194;5.728;2023-02-14T09:11:30;2.50;99.90
54642;DHT22;40536;53.194;5.728;2023-02-14T09:13:56;2.70;99.90
54642;DHT22;40536;53.194;5.728;2023-02-14T09:16:22;2.80;99.90
54642;DHT22;40536;53.194;5.728;2023-02-14T09:18:49;2.90;99.90
54642;DHT22;40536;53.194;5.728;2023-02-14T09:21:21;3.80;99.90
54642;DHT22;40536;53.194;5.728;2023-02-14T09:23:47;3.10;99.90
54642;DHT22;40536;53.194;5.728;2023-02-14T09:26:14;3.30;99.90
54642;DHT22;40536;53.194;5.728;2023-02-14T09:28:40;3.40;99.90
54642;DHT22;40536;53.194;5.728;2023-02-14T09:31:15;3.60;99.90
54642;DHT22;40536;53.194;5.728;2023-02-14T09:33:41;3.70;99.90
54642;DHT22;40536;53.194;5.728;2023-02-14T09:36:07;3.80;99.90
54642;DHT22;40536;53.194;5.728;2023-02-14T09:38:51;3.90;99.90
54642;DHT22;40536;53.194;5.728;2023-02-14T09:43:58;4.10;99.90
54642;DHT22;40536;53.194;5.728;2023-02-14T09:46:25;4.20;99.90
54642;DHT22;40536;53.194;5.728;2023-02-14T09:48:53;4.30;99.90
54642;DHT22;40536;53.194;5.728;2023-02-14T09:51:22;4.40;99.90
54642;DHT22;40536;53.194;5.728;2023-02-14T09:54:11;4.50;99.90
54642;DHT22;40536;53.194;5.728;2023-02-14T09:59:14;4.90;99.90
54642;DHT22;40536;53.194;5.728;2023-02-14T10:01:50;5.10;99.90
54642;DHT22;40536;53.194;5.728;2023-02-14T10:04:19;5.30;99.90
54642;DHT22;40536;53.194;5.728;2023-02-14T10:06:57;5.50;99.90
54642;DHT22;40536;53.194;5.728;2023-02-14T10:12:33;6.00;99.90
54642;DHT22;40536;53.194;5.728;2023-02-14T10:15:06;6.20;99.90
54642;DHT22;40536;53.194;5.728;2023-02-14T10:17:52;6.40;99.90
54642;DHT22;40536;53.194;5.728;2023-02-14T10:22:53;6.90;99.90
54642;DHT22;40536;53.194;5.728;2023-02-14T10:25:25;8.00;99.90
54642;DHT22;40536;53.194;5.728;2023-02-14T10:27:55;7.40;99.90
54642;DHT22;40536;53.194;5.728;2023-02-14T10:30:22;7.80;99.90
54642;DHT22;40536;53.194;5.728;2023-02-14T10:33:24;7.90;99.90
54642;DHT22;40536;53.194;5.728;2023-02-14T10:36:03;9.10;99.90
54642;DHT22;40536;53.194;5.728;2023-02-14T10:38:41;8.70;99.90
54642;DHT22;40536;53.194;5.728;2023-02-14T10:44:17;9.30;99.90
54642;DHT22;40536;53.194;5.728;2023-02-14T10:54:49;10.50;99.90
54642;DHT22;40536;53.194;5.728;2023-02-14T10:57:28;10.60;99.90
54642;DHT22;40536;53.194;5.728;2023-02-14T11:00:03;10.80;99.90
54642;DHT22;40536;53.194;5.728;2023-02-14T11:02:38;11.00;99.90
54642;DHT22;40536;53.194;5.728;2023-02-14T11:05:07;11.20;99.90
54642;DHT22;40536;53.194;5.728;2023-02-14T11:07:33;11.40;99.90
54642;DHT22;40536;53.194;5.728;2023-02-14T11:10:00;11.50;99.90
54642;DHT22;40536;53.194;5.728;2023-02-14T11:15:30;11.80;99.90
54642;DHT22;40536;53.194;5.728;2023-02-14T11:20:41;12.10;99.90
54642;DHT22;40536;53.194;5.728;2023-02-14T11:23:17;12.20;99.90
54642;DHT22;40536;53.194;5.728;2023-02-14T11:25:49;12.30;99.90
54642;DHT22;40536;53.194;5.728;2023-02-14T11:28:17;12.30;99.90
54642;DHT22;40536;53.194;5.728;2023-02-14T11:30:46;12.30;99.90
54642;DHT22;40536;53.194;5.728;2023-02-14T11:33:27;12.40;99.90
54642;DHT22;40536;53.194;5.728;2023-02-14T11:35:54;12.60;99.90
54642;DHT22;40536;53.194;5.728;2023-02-14T11:38:32;12.70;99.90
54642;DHT22;40536;53.194;5.728;2023-02-14T11:41:01;12.90;99.90
54642;DHT22;40536;53.194;5.728;2023-02-14T11:43:32;13.10;99.90
54642;DHT22;40536;53.194;5.728;2023-02-14T11:46:17;13.20;99.90
54642;DHT22;40536;53.194;5.728;2023-02-14T11:48:59;13.30;99.90
54642;DHT22;40536;53.194;5.728;2023-02-14T11:51:31;13.40;99.90
54642;DHT22;40536;53.194;5.728;2023-02-14T11:53:59;13.40;99.90
54642;DHT22;40536;53.194;5.728;2023-02-14T11:56:49;13.50;99.90
54642;DHT22;40536;53.194;5.728;2023-02-14T11:59:29;13.40;99.90
54642;DHT22;40536;53.194;5.728;2023-02-14T12:01:57;13.40;99.90
54642;DHT22;40536;53.194;5.728;2023-02-14T12:04:33;13.00;99.90
54642;DHT22;40536;53.194;5.728;2023-02-14T12:07:17;13.10;99.90
54642;DHT22;40536;53.194;5.728;2023-02-14T12:09:45;12.90;99.90
54642;DHT22;40536;53.194;5.728;2023-02-14T12:12:22;13.00;99.90
54642;DHT22;40536;53.194;5.728;2023-02-14T12:14:49;13.00;99.90
54642;DHT22;40536;53.194;5.728;2023-02-14T12:17:34;13.00;99.90
54642;DHT22;40536;53.194;5.728;2023-02-14T12:20:13;12.90;99.90
54642;DHT22;40536;53.194;5.728;2023-02-14T12:23:06;12.90;99.90
54642;DHT22;40536;53.194;5.728;2023-02-14T12:26:02;12.80;99.90
54642;DHT22;40536;53.194;5.728;2023-02-14T12:28:39;12.80;99.90
54642;DHT22;40536;53.194;5.728;2023-02-14T12:31:11;12.90;99.90
54642;DHT22;40536;53.194;5.728;2023-02-14T12:33:38;12.90;99.90
54642;DHT22;40536;53.194;5.728;2023-02-14T12:36:28;12.90;99.90
54642;DHT22;40536;53.194;5.728;2023-02-14T12:44:18;12.80;99.90
54642;DHT22;40536;53.194;5.728;2023-02-14T12:49:45;12.90;99.90
54642;DHT22;40536;53.194;5.728;2023-02-14T12:52:39;12.80;99.90
54642;DHT22;40536;53.194;5.728;2023-02-14T13:03:44;12.50;99.90
54642;DHT22;40536;53.194;5.728;2023-02-14T13:06:34;12.40;99.90
54642;DHT22;40536;53.194;5.728;2023-02-14T13:14:49;12.50;99.90
54642;DHT22;40536;53.194;5.728;2023-02-14T13:17:40;12.50;99.90
54642;DHT22;40536;53.194;5.728;2023-02-14T13:22:33;12.50;99.90
54642;DHT22;40536;53.194;5.728;2023-02-14T13:25:04;12.60;99.90
54642;DHT22;40536;53.194;5.728;2023-02-14T13:27:34;12.60;99.90
54642;DHT22;40536;53.194;5.728;2023-02-14T13:32:37;12.60;99.90
54642;DHT22;40536;53.194;5.728;2023-02-14T13:35:05;12.70;99.90
54642;DHT22;40536;53.194;5.728;2023-02-14T13:37:32;12.70;99.90
54642;DHT22;40536;53.194;5.728;2023-02-14T13:40:03;12.70;99.90
54642;DHT22;40536;53.194;5.728;2023-02-14T13:48:19;12.60;99.90
54642;DHT22;40536;53.194;5.728;2023-02-14T13:50:58;12.60;99.90
54642;DHT22;40536;53.194;5.728;2023-02-14T13:58:55;12.50;99.90
54642;DHT22;40536;53.194;5.728;2023-02-14T14:17:37;12.10;99.90
54642;DHT22;40536;53.194;5.728;2023-02-14T14:22:53;12.00;99.90
54642;DHT22;40536;53.194;5.728;2023-02-14T14:25:39;12.00;99.90
54642;DHT22;40536;53.194;5.728;2023-02-14T14:28:18;11.90;99.90
54642;DHT22;40536;53.194;5.728;2023-02-14T14:30:45;11.90;99.90
54642;DHT22;40536;53.194;5.728;2023-02-14T14:33:26;11.90;99.90
54642;DHT22;40536;53.194;5.728;2023-02-14T14:35:58;11.90;99.90
54642;DHT22;40536;53.194;5.728;2023-02-14T14:38:25;11.90;99.90
54642;DHT22;40536;53.194;5.728;2023-02-14T14:40:51;11.80;99.90
54642;DHT22;40536;53.194;5.728;2023-02-14T14:43:22;11.80;99.90
54642;DHT22;40536;53.194;5.728;2023-02-14T14:45:49;11.90;99.90
54642;DHT22;40536;53.194;5.728;2023-02-14T14:50:48;11.80;99.90
54642;DHT22;40536;53.194;5.728;2023-02-14T14:53:39;11.70;99.90
54642;DHT22;40536;53.194;5.728;2023-02-14T14:56:28;11.70;99.90
54642;DHT22;40536;53.194;5.728;2023-02-14T14:58:56;11.60;99.90
54642;DHT22;40536;53.194;5.728;2023-02-14T15:01:38;11.60;99.90
54642;DHT22;40536;53.194;5.728;2023-02-14T15:06:39;11.50;99.90
54642;DHT22;40536;53.194;5.728;2023-02-14T15:09:20;11.40;99.90
54642;DHT22;40536;53.194;5.728;2023-02-14T15:11:48;11.40;99.90
54642;DHT22;40536;53.194;5.728;2023-02-14T15:14:40;11.50;99.90
54642;DHT22;40536;53.194;5.728;2023-02-14T15:17:18;11.40;99.90
54642;DHT22;40536;53.194;5.728;2023-02-14T15:19:47;11.40;99.90
54642;DHT22;40536;53.194;5.728;2023-02-14T15:22:33;11.40;99.90
54642;DHT22;40536;53.194;5.728;2023-02-14T15:25:07;11.30;99.90
54642;DHT22;40536;53.194;5.728;2023-02-14T15:27:39;11.30;99.90
54642;DHT22;40536;53.194;5.728;2023-02-14T15:30:30;11.20;99.90
54642;DHT22;40536;53.194;5.728;2023-02-14T15:33:00;11.20;99.90
54642;DHT22;40536;53.194;5.728;2023-02-14T15:35:32;11.10;99.90
54642;DHT22;40536;53.194;5.728;2023-02-14T15:38:02;11.10;99.90
54642;DHT22;40536;53.194;5.728;2023-02-14T15:40:33;11.00;99.90
54642;DHT22;40536;53.194;5.728;2023-02-14T15:43:23;10.90;99.90
54642;DHT22;40536;53.194;5.728;2023-02-14T15:45:52;10.90;99.90
54642;DHT22;40536;53.194;5.728;2023-02-14T15:48:32;10.80;99.90
54642;DHT22;40536;53.194;5.728;2023-02-14T15:51:00;10.70;99.90
54642;DHT22;40536;53.194;5.728;2023-02-14T15:56:04;10.60;99.90
54642;DHT22;40536;53.194;5.728;2023-02-14T15:58:30;10.50;99.90
54642;DHT22;40536;53.194;5.728;2023-02-14T16:00:58;10.90;99.90
54642;DHT22;40536;53.194;5.728;2023-02-14T16:03:31;10.80;99.90
54642;DHT22;40536;53.194;5.728;2023-02-14T16:06:02;10.30;99.90
54642;DHT22;40536;53.194;5.728;2023-02-14T16:08:37;10.20;99.90
54642;DHT22;40536;53.194;5.728;2023-02-14T16:11:14;10.00;99.90
54642;DHT22;40536;53.194;5.728;2023-02-14T16:13:50;10.00;99.90
54642;DHT22;40536;53.194;5.728;2023-02-14T16:16:19;9.80;99.90
54642;DHT22;40536;53.194;5.728;2023-02-14T16:18:53;9.70;99.90
54642;DHT22;40536;53.194;5.728;2023-02-14T16:21:21;9.60;99.90
54642;DHT22;40536;53.194;5.728;2023-02-14T16:26:40;9.40;99.90
54642;DHT22;40536;53.194;5.728;2023-02-14T16:29:08;9.30;99.90
54642;DHT22;40536;53.194;5.728;2023-02-14T16:31:37;9.20;99.90
54642;DHT22;40536;53.194;5.728;2023-02-14T16:34:04;9.10;99.90
54642;DHT22;40536;53.194;5.728;2023-02-14T16:36:30;9.00;99.90
54642;DHT22;40536;53.194;5.728;2023-02-14T16:38:58;8.90;99.90
54642;DHT22;40536;53.194;5.728;2023-02-14T16:41:27;8.80;99.90
54642;DHT22;40536;53.194;5.728;2023-02-14T16:43:54;8.60;99.90
54642;DHT22;40536;53.194;5.728;2023-02-14T16:46:22;8.70;99.90
54642;DHT22;40536;53.194;5.728;2023-02-14T16:48:49;8.50;99.90
54642;DHT22;40536;53.194;5.728;2023-02-14T16:51:22;8.40;99.90
54642;DHT22;40536;53.194;5.728;2023-02-14T16:53:49;8.30;99.90
54642;DHT22;40536;53.194;5.728;2023-02-14T16:58:58;8.10;99.90
54642;DHT22;40536;53.194;5.728;2023-02-14T17:01:24;8.00;99.90
54642;DHT22;40536;53.194;5.728;2023-02-14T17:03:50;7.90;99.90
54642;DHT22;40536;53.194;5.728;2023-02-14T17:06:22;7.80;99.90
54642;DHT22;40536;53.194;5.728;2023-02-14T17:08:49;7.60;99.90
54642;DHT22;40536;53.194;5.728;2023-02-14T17:11:15;8.30;99.90
54642;DHT22;40536;53.194;5.728;2023-02-14T17:13:42;8.20;99.90
54642;DHT22;40536;53.194;5.728;2023-02-14T17:16:09;7.30;99.90
54642;DHT22;40536;53.194;5.728;2023-02-14T17:18:38;7.20;99.90
54642;DHT22;40536;53.194;5.728;2023-02-14T17:21:05;7.20;99.90
54642;DHT22;40536;53.194;5.728;2023-02-14T17:23:31;7.10;99.90
54642;DHT22;40536;53.194;5.728;2023-02-14T17:25:56;6.90;99.90
54642;DHT22;40536;53.194;5.728;2023-02-14T17:28:22;6.90;99.90
54642;DHT22;40536;53.194;5.728;2023-02-14T17:30:53;6.80;99.90
54642;DHT22;40536;53.194;5.728;2023-02-14T17:33:19;7.30;99.90
54642;DHT22;40536;53.194;5.728;2023-02-14T17:35:45;6.70;99.90
54642;DHT22;40536;53.194;5.728;2023-02-14T17:38:11;7.10;99.90
54642;DHT22;40536;53.194;5.728;2023-02-14T17:40:37;6.60;99.90
54642;DHT22;40536;53.194;5.728;2023-02-14T17:43:02;7.30;99.90
54642;DHT22;40536;53.194;5.728;2023-02-14T17:45:28;7.50;99.90
54642;DHT22;40536;53.194;5.728;2023-02-14T17:47:54;6.30;99.90
54642;DHT22;40536;53.194;5.728;2023-02-14T17:50:19;6.80;99.90
54642;DHT22;40536;53.194;5.728;2023-02-14T17:52:45;7.00;99.90
54642;DHT22;40536;53.194;5.728;2023-02-14T17:55:11;6.10;99.90
54642;DHT22;40536;53.194;5.728;2023-02-14T17:57:38;6.10;99.90
54642;DHT22;40536;53.194;5.728;2023-02-14T18:00:06;6.40;99.90
54642;DHT22;40536;53.194;5.728;2023-02-14T18:02:32;6.00;99.90
54642;DHT22;40536;53.194;5.728;2023-02-14T18:04:58;5.90;99.90
54642;DHT22;40536;53.194;5.728;2023-02-14T18:07:23;6.50;99.90
54642;DHT22;40536;53.194;5.728;2023-02-14T18:09:49;5.70;99.90
54642;DHT22;40536;53.194;5.728;2023-02-14T18:12:15;5.60;99.90
54642;DHT22;40536;53.194;5.728;2023-02-14T18:14:41;6.70;99.90
54642;DHT22;40536;53.194;5.728;2023-02-14T18:17:13;5.60;99.90
54642;DHT22;40536;53.194;5.728;2023-02-14T18:19:41;6.20;99.90
54642;DHT22;40536;53.194;5.728;2023-02-14T18:22:07;5.50;99.90
54642;DHT22;40536;53.194;5.728;2023-02-14T18:24:33;5.40;99.90
54642;DHT22;40536;53.194;5.728;2023-02-14T18:26:59;6.60;99.90
54642;DHT22;40536;53.194;5.728;2023-02-14T18:29:24;5.70;99.90
54642;DHT22;40536;53.194;5.728;2023-02-14T18:31:50;6.40;99.90